Flight Track Log - Related Links

Times and Time Zones

All times are in EDT time to prevent confusion due to time zone crossing. See the ASQ4086 flight status page for this flight to view local times or setup timezone preferences in your user account.

Time Position Orientation Groundspeed Altitude Reporting Facility
EDT Latitude Longitude Course Direction KTS MPH feet Rate Location/Type
Sat 06:18:19 PM 32.9392 -80.0883 276° West 241 277 2,800  Level Jacksonville Center
Sat 06:19:19 PM 32.9433 -80.1822 273° West 282 325 4,900 2,750 Climbing Jacksonville Center
Sat 06:20:00 PM 32.9333 -80.4257 270° West  Level FlightAware Approximate
Sat 06:20:19 PM 32.9306 -80.2767 261° West 292 336 8,300  Level Jacksonville Center
Sat 06:21:00 PM 32.9351 -80.5356 276° West  Level FlightAware Approximate
Sat 06:21:19 PM 32.9200 -80.3661 262° West 292 336 11,200  Level Jacksonville Center
Sat 06:22:00 PM 32.9450 -80.6450 276° West  Level FlightAware Approximate
Sat 06:22:19 PM 32.9053 -80.4678 260° West 287 330 12,900  Level Jacksonville Center
Sat 06:23:00 PM 32.9559 -80.7643 276° West  Level FlightAware Approximate
Sat 06:23:19 PM 32.8925 -80.5719 262° West 306 352 14,000  Level Jacksonville Center
Sat 06:24:19 PM 32.8758 -80.6886 260° West 335 386 15,100 1,200 Climbing Jacksonville Center
Sat 06:25:19 PM 32.8592 -80.8078 261° West 355 409 16,400 1,300 Climbing Jacksonville Center
Sat 06:26:19 PM 32.8422 -80.9269 260° West 368 423 17,700 1,250 Climbing Jacksonville Center
Sat 06:27:19 PM 32.8253 -81.0483 261° West 373 429 18,900 1,250 Climbing Jacksonville Center
Sat 06:28:19 PM 32.8083 -81.1722 261° West 373 429 20,200 1,300 Climbing Jacksonville Center
Sat 06:29:19 PM 32.7911 -81.2961 261° West 373 429 21,500 1,300 Climbing Jacksonville Center
Sat 06:30:19 PM 32.7739 -81.4175 260° West 373 429 22,800 1,300 Climbing Jacksonville Center
Sat 06:31:19 PM 32.7586 -81.5439 262° West 373 429 24,100 1,262 Climbing Jacksonville Center
Sat 06:33:34 PM 32.7156 -81.7972 259° West 370 426 26,900 1,262 Climbing Atlanta Center
Sat 06:34:34 PM 32.7011 -81.9183 262° West 370 426 28,200 1,300 Climbing Atlanta Center
Sat 06:35:34 PM 32.6819 -82.0350 259° West 370 426 29,500 1,250 Climbing Atlanta Center
Sat 06:36:34 PM 32.6650 -82.1489 260° West 364 419 30,700 1,250 Climbing Atlanta Center
Sat 06:37:34 PM 32.6481 -82.2578 260° West 354 407 32,000 1,300 Climbing Atlanta Center
Sat 06:38:34 PM 32.6328 -82.3689 261° West 349 402 33,300 1,000 Climbing Atlanta Center
Sat 06:39:34 PM 32.6133 -82.4778 258° West 349 402 34,000 450 Climbing Atlanta Center
Sat 06:40:34 PM 32.5981 -82.5942 261° West 349 402 34,200 950 Climbing Atlanta Center
Sat 06:41:34 PM 32.5806 -82.7103 260° West 354 407 35,900 900 Climbing Atlanta Center
Sat 06:42:34 PM 32.5628 -82.8164 259° West 349 402 36,000 50 Climbing Atlanta Center
Sat 06:43:34 PM 32.5494 -82.9300 262° West 354 407 36,000  Level Atlanta Center
Sat 06:44:34 PM 32.5442 -83.0556 267° West 365 420 36,000  Level Atlanta Center
Sat 06:45:34 PM 32.5347 -83.1789 265° West 377 434 36,000  Level Atlanta Center
Sat 06:46:34 PM 32.5231 -83.3072 264° West 388 447 36,000  Level Atlanta Center
Sat 06:47:34 PM 32.5092 -83.4328 263° West 388 447 36,000  Level Atlanta Center
Sat 06:48:34 PM 32.4992 -83.5536 264° West 388 447 36,000  Level Atlanta Center
Sat 06:49:34 PM 32.4892 -83.6719 264° West 377 434 36,000  Level Atlanta Center
Sat 06:50:34 PM 32.4789 -83.7903 264° West 372 428 36,000  Level Atlanta Center
Sat 06:51:34 PM 32.4667 -83.9083 263° West 366 421 36,000  Level Atlanta Center
Sat 06:52:34 PM 32.4564 -84.0264 264° West 366 421 36,000  Level Atlanta Center
Sat 06:53:34 PM 32.4458 -84.1472 264° West 371 427 36,000  Level Atlanta Center
Sat 06:54:34 PM 32.4331 -84.2653 263° West 371 427 36,000  Level Atlanta Center
Sat 06:55:34 PM 32.4225 -84.3858 264° West 371 427 36,000  Level Atlanta Center
Sat 06:56:34 PM 32.4117 -84.5064 264° West 371 427 36,000  Level Atlanta Center
Sat 06:57:34 PM 32.3986 -84.6244 263° West 371 427 36,000  Level Atlanta Center
Sat 06:58:34 PM 32.3875 -84.7447 264° West 371 427 36,000  Level Atlanta Center
Sat 06:59:34 PM 32.3722 -84.8603 261° West 365 420 36,000 300 Level Atlanta Center
Sat 07:00:34 PM 32.3650 -84.9806 266° West 365 420 36,600 500 Climbing Atlanta Center
Sat 07:01:34 PM 32.3536 -85.0936 263° West 365 420 37,000 200 Climbing Atlanta Center
Sat 07:02:34 PM 32.3381 -85.2114 261° West 365 420 37,000  Level Atlanta Center
Sat 07:03:34 PM 32.3283 -85.3317 265° West 370 426 37,000  Level Atlanta Center
Sat 07:04:34 PM 32.3000 -85.4444 253° West 370 426 37,000  Level Atlanta Center
Sat 07:05:34 PM 32.2447 -85.5467 237° Southwest 364 419 37,000  Level Atlanta Center
Sat 07:06:34 PM 32.1911 -85.6514 239° Southwest 369 425 37,000  Level Atlanta Center
Sat 07:07:34 PM 32.1356 -85.7558 238° Southwest 379 436 37,000  Level Atlanta Center
Sat 07:08:34 PM 32.0797 -85.8625 238° Southwest 384 442 37,000  Level Atlanta Center
Sat 07:09:34 PM 32.0258 -85.9667 239° Southwest 384 442 37,000  Level Atlanta Center
Sat 07:11:43 PM 31.8978 -86.2058 238° Southwest 374 430 37,000  Level Jacksonville Center
Sat 07:12:43 PM 31.8428 -86.3089 238° Southwest 379 436 37,000  Level Jacksonville Center
Sat 07:13:43 PM 31.7856 -86.4144 237° Southwest 384 442 37,000  Level Jacksonville Center
Sat 07:14:43 PM 31.7325 -86.5197 239° Southwest 384 442 37,000  Level Jacksonville Center
Sat 07:15:43 PM 31.6772 -86.6250 238° Southwest 384 442 37,000  Level Jacksonville Center
Sat 07:16:43 PM 31.6219 -86.7278 238° Southwest 384 442 37,000  Level Jacksonville Center
Sat 07:17:43 PM 31.5644 -86.8350 238° Southwest 384 442 37,000  Level Jacksonville Center
Sat 07:18:43 PM 31.5069 -86.9397 237° Southwest 384 442 37,000 -239 Level Jacksonville Center
Sat 07:21:04 PM 31.3781 -87.1756 237° Southwest 389 448 36,200 -296 Descending Houston Center
Sat 07:22:06 PM 31.3217 -87.2817 238° Southwest 386 444 36,000 -98 Descending Houston Center
Sat 07:23:07 PM 31.2636 -87.3864 237° Southwest 382 440 36,000  Level Houston Center
Sat 07:24:09 PM 31.2106 -87.4931 240° Southwest 379 436 36,000  Level Houston Center
Sat 07:25:10 PM 31.1731 -87.6094 249° West 383 441 36,000  Level Houston Center
Sat 07:26:12 PM 31.1314 -87.7328 248° West 389 448 36,000  Level Houston Center
Sat 07:27:13 PM 31.0928 -87.8497 249° West 386 444 36,000  Level Houston Center
Sat 07:28:15 PM 31.0461 -87.9908 249° West 388 447 36,000  Level Houston Center
Sat 07:29:17 PM 31.0067 -88.1083 249° West 389 448 36,000  Level Houston Center
Sat 07:30:18 PM 30.9658 -88.2250 248° West 389 448 36,000  Level Houston Center
Sat 07:31:20 PM 30.9275 -88.3425 249° West 386 444 36,000  Level Houston Center
Sat 07:32:21 PM 30.8878 -88.4578 248° West 381 438 36,000  Level Houston Center
Sat 07:33:23 PM 30.8489 -88.5725 248° West 381 438 36,000  Level Houston Center
Sat 07:34:24 PM 30.8094 -88.6889 248° West 372 428 36,000  Level Houston Center
Sat 07:35:26 PM 30.7711 -88.8003 248° West 371 427 36,000  Level Houston Center
Sat 07:36:28 PM 30.7331 -88.9119 248° West 371 427 36,000  Level Houston Center
Sat 07:37:29 PM 30.6900 -89.0403 249° West 370 426 36,000  Level Houston Center
Sat 07:38:31 PM 30.6514 -89.1511 248° West 372 428 36,000  Level Houston Center
Sat 07:39:32 PM 30.6133 -89.2617 248° West 370 426 36,000  Level Houston Center
Sat 07:40:34 PM 30.5756 -89.3717 248° West 369 425 36,000  Level Houston Center
Sat 07:41:36 PM 30.5386 -89.4817 249° West 367 422 36,000  Level Houston Center
Sat 07:42:37 PM 30.5000 -89.5928 248° West 371 427 36,000  Level Houston Center
Sat 07:43:39 PM 30.4547 -89.7239 248° West 371 427 36,000  Level Houston Center
Sat 07:44:40 PM 30.4158 -89.8303 247° West 371 427 36,000  Level Houston Center
Sat 07:45:42 PM 30.3772 -89.9397 248° West 378 435 36,000  Level Houston Center
Sat 07:46:44 PM 30.3381 -90.0492 248° West 372 428 36,000  Level Houston Center
Sat 07:47:45 PM 30.2917 -90.1817 248° West 373 429 36,000  Level Houston Center
Sat 07:48:47 PM 30.2525 -90.2919 248° West 372 428 36,000  Level Houston Center
Sat 07:49:48 PM 30.2131 -90.4014 247° West 371 427 36,000  Level Houston Center
Sat 07:50:50 PM 30.1736 -90.5106 247° West 370 426 36,000  Level Houston Center
Sat 07:51:52 PM 30.1339 -90.6203 247° West 370 426 36,000  Level Houston Center
Sat 07:52:53 PM 30.0939 -90.7303 247° West 372 428 36,000  Level Houston Center
Sat 07:53:55 PM 30.0536 -90.8422 247° West 377 434 36,000  Level Houston Center
Sat 07:54:56 PM 30.0144 -90.9522 248° West 372 428 36,000  Level Houston Center
Sat 07:55:58 PM 29.9661 -91.0858 247° West 376 433 36,000  Level Houston Center
Sat 07:56:59 PM 29.9256 -91.1961 247° West 375 432 36,000  Level Houston Center
Sat 07:58:01 PM 29.8858 -91.3064 247° West 373 429 36,000  Level Houston Center
Sat 07:59:03 PM 29.8442 -91.4161 246° West 373 429 36,000  Level Houston Center
Sat 08:00:04 PM 29.8036 -91.5264 247° West 375 432 36,000  Level Houston Center
Sat 08:01:06 PM 29.7650 -91.6356 248° West 370 426 36,000  Level Houston Center
Sat 08:02:07 PM 29.7169 -91.7600 246° West 374 430 36,000  Level Houston Center
Sat 08:03:09 PM 29.6761 -91.8708 247° West 375 432 36,000  Level Houston Center
Sat 08:04:10 PM 29.6367 -91.9789 247° West 369 425 36,000  Level Houston Center
Sat 08:05:12 PM 29.5956 -92.0889 247° West 373 429 36,000  Level Houston Center
Sat 08:06:13 PM 29.5533 -92.1994 246° West 376 433 36,000  Level Houston Center
Sat 08:07:15 PM 29.5131 -92.3094 247° West 375 432 36,000  Level Houston Center
Sat 08:08:16 PM 29.5081 -92.4261 267° West 366 421 36,000  Level Houston Center
Sat 08:09:17 PM 29.5083 -92.5444 270° West 370 426 36,000  Level Houston Center
Sat 08:10:19 PM 29.5106 -92.6847 271° West 367 422 36,000  Level Houston Center
Sat 08:11:20 PM 29.5122 -92.8031 271° West 370 426 36,000  Level Houston Center
Sat 08:12:22 PM 29.5119 -92.9206 270° West 370 426 36,000 -439 Level Houston Center
Sat 08:13:23 PM 29.5136 -93.0378 271° West 369 425 35,100 -1,426 Descending Houston Center
Sat 08:14:24 PM 29.5150 -93.1533 271° West 363 418 33,100 -1,951 Descending Houston Center
Sat 08:15:26 PM 29.5150 -93.2722 270° West 370 426 31,100 -1,951 Descending Houston Center
Sat 08:16:27 PM 29.5158 -93.3919 270° West 374 430 29,100 -2,000 Descending Houston Center
Sat 08:17:29 PM 29.5167 -93.5139 270° West 380 437 27,000 -2,000 Descending Houston Center
Sat 08:18:30 PM 29.5167 -93.6375 270° West 385 443 25,000 -1,967 Descending Houston Center
Sat 08:19:31 PM 29.5167 -93.7631 270° West 390 449 23,000 -2,146 Descending Houston Center
Sat 08:20:33 PM 29.5175 -93.9086 270° West 380 437 20,600 -2,233 Descending Houston Center
Sat 08:21:40 PM 29.5225 -94.0389 273° West 354 407 18,200 -2,262 Descending Houston Center
Sat 08:22:35 PM 29.5261 -94.1347 273° West 352 405 16,000 -2,462 Descending Houston Center
Sat 08:23:37 PM 29.5292 -94.2439 272° West 327 376 13,400 -1,463 Descending Houston Center
Sat 08:24:38 PM 29.5325 -94.3394 272° West 304 350 13,000 -787 Descending Houston Center
Sat 08:25:39 PM 29.5667 -94.4214 296° West 283 326 11,800 -1,317 Descending Houston Center
Sat 08:26:41 PM 29.6000 -94.5008 296° West 277 319 10,300 -1,415 Descending Houston Center
Sat 08:27:42 PM 29.6294 -94.5686 297° West 244 281 8,900 -1,559 Descending Houston Center
Sat 08:28:48 PM 29.6683 -94.6406 302° West 229 264 7,000 -1,415 Descending Houston Center
Sat 08:29:45 PM 29.7081 -94.6850 316° Northwest 244 281 6,000 -458 Descending Houston Center
Sat 08:30:46 PM 29.7542 -94.7381 315° West 238 274 6,100 -148 Climbing Houston Center
Sat 08:31:47 PM 29.8114 -94.8039 315° West 243 280 5,700 -885 Descending Houston Center
Sat 08:32:48 PM 29.8581 -94.8583 315° West 241 277 4,300 -1,182 Descending Houston Center
Sat 08:33:59 PM 29.9167 -94.9272 314° West 250 288 3,100 -585 Descending Houston Center
Sat 08:34:51 PM 29.9533 -94.9692 315° West 243 280 3,100 -410 Level Houston Center
Sat 08:35:56 PM 29.9767 -95.0522 288° West 245 282 2,300 -541 Descending Houston Center
Sat 08:36:53 PM 29.9772 -95.1133 271° West 242 278 2,000 -153 Descending Houston Center
Sat 08:37:54 PM 29.9783 -95.1819 271° West 230 265 2,000 -244 Level Houston Center
Sat 08:38:56 PM 29.9781 -95.2242 270° West 169 194 1,500 -634 Descending Houston Center
Sat 08:39:57 PM 29.9781 -95.2728 270° West 138 159 700 -590 Descending Houston Center
Sat 08:40:58 PM 29.9775 -95.3097 269° West 133 153 300 -393 Descending Houston Center

Login

Don't have an account? Register now (free) for customized features, flight alerts, and more!